createdAt,value
2022-09-23T00:01:22.896Z,89.68
2022-09-23T00:03:50.805Z,88.87
2022-09-23T00:06:22.164Z,88.25
2022-09-23T00:08:50.972Z,88.44
2022-09-23T00:11:21.809Z,88.53
2022-09-23T00:13:53.046Z,88.73
2022-09-23T00:16:34.579Z,88.86
2022-09-23T00:19:04.057Z,88.05
2022-09-23T00:21:31.891Z,88.58
2022-09-23T00:23:59.751Z,89.37
2022-09-23T00:26:27.894Z,88.97
2022-09-23T00:28:55.868Z,88.85
2022-09-23T00:31:27.280Z,88.59
2022-09-23T00:34:00.686Z,88.84
2022-09-23T00:36:30.295Z,88.74
2022-09-23T00:38:58.546Z,88.44
2022-09-23T00:41:27.482Z,88.51
2022-09-23T00:44:00.820Z,88.55
2022-09-23T00:46:37.098Z,89.30
2022-09-23T00:49:25.683Z,89.11
2022-09-23T00:52:01.323Z,88.13
2022-09-23T00:54:29.719Z,89.35
2022-09-23T00:57:00.649Z,89.40
2022-09-23T00:59:29.098Z,88.95
2022-09-23T01:01:58.886Z,89.17
2022-09-23T01:04:28.643Z,90.31
2022-09-23T01:06:56.396Z,90.21
2022-09-23T01:09:25.239Z,89.62
2022-09-23T01:12:07.653Z,90.01
2022-09-23T01:14:48.664Z,89.85
2022-09-23T01:17:40.312Z,88.72
2022-09-23T01:20:59.217Z,88.71
2022-09-23T01:24:09.655Z,87.78
2022-09-23T01:26:57.677Z,87.77
2022-09-23T01:30:02.959Z,87.53
2022-09-23T01:32:57.653Z,87.48
2022-09-23T01:36:19.031Z,87.92
2022-09-23T01:39:31.790Z,88.04
2022-09-23T01:42:36.022Z,88.13
2022-09-23T01:45:44.335Z,88.20
2022-09-23T01:48:45.349Z,88.40
2022-09-23T01:51:19.386Z,88.58
2022-09-23T01:54:09.790Z,88.16
2022-09-23T01:56:51.799Z,88.64
2022-09-23T01:59:31.105Z,88.26
2022-09-23T02:02:08.972Z,88.38
2022-09-23T02:05:19.075Z,88.10
2022-09-23T02:08:07.133Z,88.93
2022-09-23T02:10:42.099Z,89.69
2022-09-23T02:13:20.600Z,89.47
2022-09-23T02:15:55.620Z,89.41
2022-09-23T02:18:37.318Z,89.00
2022-09-23T02:21:09.470Z,88.98
2022-09-23T02:23:50.983Z,88.74
2022-09-23T02:26:23.032Z,88.80
2022-09-23T02:29:21.531Z,88.51
2022-09-23T02:32:00.271Z,88.46
2022-09-23T02:35:06.114Z,88.36
2022-09-23T02:38:04.500Z,88.29
2022-09-23T02:41:14.771Z,88.51
2022-09-23T02:44:13.967Z,88.54
2022-09-23T02:46:45.057Z,88.79
2022-09-23T02:49:20.635Z,88.77
2022-09-23T02:51:48.918Z,88.64
2022-09-23T02:54:22.239Z,88.45
2022-09-23T02:56:50.015Z,88.39
2022-09-23T02:59:19.882Z,89.57
2022-09-23T03:02:05.933Z,90.09
2022-09-23T03:05:14.890Z,90.45
2022-09-23T03:08:15.063Z,90.76
2022-09-23T03:11:06.179Z,91.04
2022-09-23T03:14:17.751Z,91.51
2022-09-23T03:16:55.783Z,91.12
2022-09-23T03:19:50.703Z,90.45
2022-09-23T03:22:51.565Z,89.87
2022-09-23T03:25:24.222Z,89.19
2022-09-23T03:27:57.492Z,89.35
2022-09-23T03:30:26.515Z,89.44
2022-09-23T03:32:57.041Z,89.54
2022-09-23T03:35:27.853Z,89.86
2022-09-23T03:38:11.946Z,89.53
2022-09-23T03:40:47.714Z,89.46
2022-09-23T03:43:16.568Z,89.54
2022-09-23T03:45:46.279Z,89.40
2022-09-23T03:48:17.193Z,88.82
2022-09-23T03:50:44.898Z,89.07
2022-09-23T03:53:13.800Z,90.03
2022-09-23T03:55:41.791Z,90.55
2022-09-23T03:58:09.796Z,90.10
2022-09-23T04:00:38.044Z,89.59
2022-09-23T04:03:11.447Z,90.30
2022-09-23T04:05:39.932Z,90.74
2022-09-23T04:08:08.077Z,90.24
2022-09-23T04:10:36.220Z,89.75
2022-09-23T04:13:04.260Z,89.84
2022-09-23T04:15:32.348Z,89.64
2022-09-23T04:18:00.368Z,89.54
2022-09-23T04:20:30.288Z,89.50
2022-09-23T04:22:58.369Z,89.37
2022-09-23T04:25:26.382Z,89.18
2022-09-23T04:27:54.814Z,89.88
2022-09-23T04:30:22.925Z,90.87
2022-09-23T04:32:53.153Z,91.38
2022-09-23T04:35:21.224Z,90.78
2022-09-23T04:37:49.299Z,90.75
2022-09-23T04:40:17.521Z,90.47
2022-09-23T04:42:45.608Z,90.23
2022-09-23T04:45:14.103Z,90.12
2022-09-23T04:47:42.168Z,89.57
2022-09-23T04:50:10.213Z,90.04
2022-09-23T04:52:38.432Z,90.66
2022-09-23T04:55:11.200Z,91.29
2022-09-23T04:57:39.666Z,91.38
2022-09-23T05:00:09.378Z,91.62
2022-09-23T05:02:46.903Z,91.84
2022-09-23T05:05:21.099Z,91.43
2022-09-23T05:07:50.179Z,91.27
2022-09-23T05:10:18.591Z,91.42
2022-09-23T05:12:46.611Z,91.65
2022-09-23T05:15:16.191Z,91.38
2022-09-23T05:17:44.241Z,90.60
2022-09-23T05:20:13.107Z,90.61
2022-09-23T05:22:41.270Z,90.62
2022-09-23T05:25:09.622Z,90.55
2022-09-23T05:27:38.290Z,90.23
2022-09-23T05:30:07.713Z,90.70
2022-09-23T05:32:35.723Z,91.28
2022-09-23T05:35:04.622Z,91.42
2022-09-23T05:37:33.173Z,91.22
2022-09-23T05:40:01.573Z,90.96
2022-09-23T05:42:29.774Z,90.89
2022-09-23T05:44:57.842Z,90.57
2022-09-23T05:47:25.889Z,90.48
2022-09-23T05:50:00.135Z,90.21
2022-09-23T05:52:28.725Z,89.92
2022-09-23T05:54:56.871Z,90.03
2022-09-23T05:57:25.095Z,89.95
2022-09-23T05:59:53.153Z,89.84
2022-09-23T06:02:21.422Z,89.93
2022-09-23T06:04:49.479Z,89.74
2022-09-23T06:07:17.648Z,89.73
2022-09-23T06:09:45.815Z,89.58
2022-09-23T06:12:14.207Z,89.32
2022-09-23T06:14:42.311Z,89.20
2022-09-23T06:17:10.358Z,88.91
2022-09-23T06:19:38.498Z,89.24
2022-09-23T06:22:06.527Z,89.55
2022-09-23T06:24:34.591Z,89.40
2022-09-23T06:27:03.213Z,89.58
2022-09-23T06:29:32.193Z,89.40
2022-09-23T06:32:00.789Z,89.28
2022-09-23T06:34:29.540Z,89.14
2022-09-23T06:36:59.567Z,88.99
2022-09-23T06:39:30.075Z,88.58
2022-09-23T06:41:58.185Z,88.73
2022-09-23T06:44:28.700Z,88.28
2022-09-23T06:46:57.158Z,88.20
2022-09-23T06:49:25.502Z,87.90
2022-09-23T06:51:56.185Z,88.20
2022-09-23T06:54:24.252Z,87.91
2022-09-23T06:56:52.286Z,87.83
2022-09-23T06:59:20.477Z,87.79
2022-09-23T07:01:50.669Z,87.59
2022-09-23T07:04:18.939Z,86.90
2022-09-23T07:06:47.006Z,86.64
2022-09-23T07:09:15.124Z,86.53
2022-09-23T07:11:43.230Z,86.32
2022-09-23T07:14:11.619Z,85.28
2022-09-23T07:16:40.263Z,84.74
2022-09-23T07:19:08.455Z,84.65
2022-09-23T07:21:37.763Z,84.76
2022-09-23T07:24:06.319Z,84.52
2022-09-23T07:26:34.660Z,84.49
2022-09-23T07:29:05.155Z,84.33
2022-09-23T07:31:39.552Z,84.34
2022-09-23T07:34:11.686Z,84.29
2022-09-23T07:36:43.365Z,83.82
2022-09-23T07:39:13.340Z,83.31
2022-09-23T07:41:44.586Z,82.33
2022-09-23T07:44:12.914Z,81.55
2022-09-23T07:46:41.343Z,81.71
2022-09-23T07:49:10.738Z,81.87
2022-09-23T07:51:41.085Z,81.25
2022-09-23T07:54:14.233Z,79.99
2022-09-23T07:56:43.683Z,79.86
2022-09-23T07:59:17.691Z,79.19
2022-09-23T08:01:50.477Z,79.53
2022-09-23T08:04:24.704Z,79.45
2022-09-23T08:06:57.670Z,78.68
2022-09-23T08:09:28.738Z,78.16
2022-09-23T08:11:56.779Z,78.00
2022-09-23T08:14:25.034Z,77.86
2022-09-23T08:16:54.164Z,77.30
2022-09-23T08:19:22.238Z,77.20
2022-09-23T08:21:52.147Z,76.38
2022-09-23T08:24:24.133Z,75.90
2022-09-23T08:26:54.756Z,75.30
2022-09-23T08:29:25.382Z,73.62
2022-09-23T08:31:54.168Z,74.02
2022-09-23T08:34:23.811Z,73.84
2022-09-23T08:36:52.454Z,73.59
2022-09-23T08:39:22.785Z,73.61
2022-09-23T08:41:59.067Z,73.52
2022-09-23T08:44:43.696Z,73.27
2022-09-23T08:47:51.664Z,71.05
2022-09-23T08:50:42.436Z,70.36
2022-09-23T08:53:38.070Z,69.80
2022-09-23T08:56:17.335Z,68.94
2022-09-23T08:59:04.353Z,69.06
2022-09-23T09:01:48.864Z,68.85
2022-09-23T09:04:27.383Z,67.93
2022-09-23T09:10:24.172Z,67.18
2022-09-23T09:13:11.128Z,66.67
2022-09-23T09:16:12.510Z,66.35
2022-09-23T09:18:54.810Z,64.86
2022-09-23T09:21:37.559Z,63.37
2022-09-23T09:24:21.948Z,64.53
2022-09-23T09:26:50.523Z,64.58
2022-09-23T09:29:35.863Z,62.45
2022-09-23T09:32:33.771Z,62.83
2022-09-23T09:35:18.738Z,62.47
2022-09-23T09:37:48.374Z,62.05
2022-09-23T09:40:17.301Z,60.84
2022-09-23T09:42:49.989Z,63.70
2022-09-23T09:45:30.123Z,66.31
2022-09-23T09:48:17.682Z,65.41
2022-09-23T09:50:52.464Z,66.03
2022-09-23T09:53:24.118Z,65.14
2022-09-23T09:56:05.064Z,63.18
2022-09-23T09:58:53.376Z,64.47
2022-09-23T10:01:34.066Z,59.56
2022-09-23T10:04:19.400Z,60.00
2022-09-23T10:07:15.499Z,62.93
2022-09-23T10:09:51.213Z,57.86
2022-09-23T10:12:23.902Z,64.07
2022-09-23T10:14:57.465Z,60.37
2022-09-23T10:17:34.253Z,63.23
2022-09-23T10:20:14.639Z,59.82
2022-09-23T10:22:43.216Z,56.46
2022-09-23T10:25:26.740Z,58.44
2022-09-23T10:27:54.854Z,57.43
2022-09-23T10:30:28.020Z,58.05
2022-09-23T10:32:57.003Z,59.97
2022-09-23T10:35:26.565Z,60.82
2022-09-23T10:38:00.314Z,56.31
2022-09-23T10:41:03.345Z,58.78
2022-09-23T10:44:15.141Z,55.33
2022-09-23T10:47:20.766Z,57.34
2022-09-23T10:50:29.205Z,54.14
2022-09-23T10:53:10.291Z,56.28
2022-09-23T10:56:02.571Z,58.43
2022-09-23T10:58:52.141Z,57.48
2022-09-23T11:01:41.775Z,59.05
2022-09-23T11:05:04.828Z,55.91
2022-09-23T11:08:05.567Z,55.96
2022-09-23T11:10:48.629Z,51.73
2022-09-23T11:13:41.940Z,58.79
2022-09-23T11:16:55.549Z,61.21
2022-09-23T11:19:26.534Z,58.67
2022-09-23T11:22:20.846Z,58.31
2022-09-23T11:24:58.523Z,56.03
2022-09-23T11:28:18.056Z,57.84
2022-09-23T11:31:14.677Z,59.33
2022-09-23T11:34:16.050Z,58.38
2022-09-23T11:36:57.011Z,61.84
2022-09-23T11:39:40.551Z,63.91
2022-09-23T11:42:25.190Z,66.04
2022-09-23T11:45:15.021Z,66.67
2022-09-23T11:47:52.096Z,60.23
2022-09-23T11:51:01.165Z,62.68
2022-09-23T11:53:39.880Z,62.73
2022-09-23T11:56:35.340Z,57.65
2022-09-23T11:59:37.095Z,63.17
2022-09-23T12:02:33.623Z,65.38
2022-09-23T12:05:10.726Z,56.78
2022-09-23T12:07:57.800Z,56.96
2022-09-23T12:10:38.445Z,61.29
2022-09-23T12:13:20.207Z,63.02
2022-09-23T12:16:02.464Z,55.70
2022-09-23T12:18:43.014Z,54.06
2022-09-23T12:21:39.111Z,54.08
2022-09-23T12:24:27.995Z,54.01
2022-09-23T12:27:05.631Z,56.14
2022-09-23T12:29:37.004Z,62.11
2022-09-23T12:32:09.939Z,60.93
2022-09-23T12:34:49.127Z,52.06
2022-09-23T12:37:44.197Z,49.02
2022-09-23T12:40:45.306Z,55.70
2022-09-23T12:43:33.248Z,51.28
2022-09-23T12:46:26.165Z,54.21
2022-09-23T12:48:57.856Z,49.44
2022-09-23T12:51:35.000Z,46.87
2022-09-23T12:54:21.318Z,50.93
2022-09-23T12:56:55.904Z,50.91
2022-09-23T12:59:28.353Z,48.46
2022-09-23T13:01:57.658Z,49.87
2022-09-23T13:05:00.090Z,52.09
2022-09-23T13:07:34.131Z,50.01
2022-09-23T13:10:18.287Z,54.36
2022-09-23T13:12:47.314Z,50.33
2022-09-23T13:15:35.784Z,49.08
2022-09-23T13:18:44.706Z,55.02
2022-09-23T13:21:39.323Z,54.96
2022-09-23T13:24:13.633Z,54.02
2022-09-23T13:27:00.346Z,50.54
2022-09-23T13:29:47.721Z,52.85
2022-09-23T13:32:18.655Z,56.08
2022-09-23T13:35:14.326Z,54.79
2022-09-23T13:37:49.909Z,53.27
2022-09-23T13:40:28.411Z,52.89
2022-09-23T13:43:20.236Z,53.58
2022-09-23T13:45:50.129Z,50.40
2022-09-23T13:48:20.877Z,52.65
2022-09-23T13:50:53.312Z,49.40
2022-09-23T13:53:31.894Z,48.67
2022-09-23T13:56:13.522Z,52.58
2022-09-23T13:58:43.476Z,49.62
2022-09-23T14:01:34.756Z,48.57
2022-09-23T14:04:03.007Z,48.90
2022-09-23T14:06:32.161Z,45.67
2022-09-23T14:09:02.066Z,48.88
2022-09-23T14:11:35.178Z,46.87
2022-09-23T14:14:07.932Z,48.74
2022-09-23T14:16:40.598Z,49.58
2022-09-23T14:19:20.029Z,49.80
2022-09-23T14:21:54.632Z,47.97
2022-09-23T14:24:31.613Z,50.51
2022-09-23T14:27:06.820Z,49.56
2022-09-23T14:29:44.262Z,50.56
2022-09-23T14:32:21.254Z,50.09
2022-09-23T14:35:05.188Z,50.32
2022-09-23T14:37:57.119Z,51.67
2022-09-23T14:40:35.986Z,53.74
2022-09-23T14:43:08.760Z,53.29
2022-09-23T14:45:40.038Z,52.58
2022-09-23T14:48:16.405Z,54.53
2022-09-23T14:51:10.798Z,54.79
2022-09-23T14:53:46.354Z,55.62
2022-09-23T14:56:22.841Z,52.65
2022-09-23T14:58:54.663Z,55.40
2022-09-23T15:01:35.154Z,56.01
2022-09-23T15:04:21.303Z,55.34
2022-09-23T15:06:57.765Z,54.33
2022-09-23T15:09:32.511Z,53.64
2022-09-23T15:12:22.049Z,52.03
2022-09-23T15:14:54.304Z,51.13
2022-09-23T15:17:35.059Z,51.54
2022-09-23T15:20:08.895Z,51.58
2022-09-23T15:22:46.092Z,52.23
2022-09-23T15:25:25.675Z,51.43
2022-09-23T15:28:04.362Z,51.46
2022-09-23T15:30:36.653Z,52.02
2022-09-23T15:33:06.538Z,53.10
2022-09-23T15:35:36.357Z,54.59
2022-09-23T15:38:04.557Z,53.68
2022-09-23T15:40:36.415Z,53.08
2022-09-23T15:43:21.910Z,53.32
2022-09-23T15:45:54.132Z,51.87
2022-09-23T15:48:32.533Z,52.73
2022-09-23T15:51:06.939Z,53.00
2022-09-23T15:53:36.448Z,52.33
2022-09-23T15:56:06.265Z,52.01
2022-09-23T15:58:34.487Z,52.02
2022-09-23T16:01:03.852Z,52.68
2022-09-23T16:03:32.056Z,53.01
2022-09-23T16:06:03.278Z,52.97
2022-09-23T16:08:33.035Z,53.43
2022-09-23T16:11:01.443Z,54.06
2022-09-23T16:13:29.691Z,54.30
2022-09-23T16:15:57.818Z,54.31
2022-09-23T16:18:26.044Z,55.20
2022-09-23T16:20:54.780Z,55.78
2022-09-23T16:23:35.528Z,55.38
2022-09-23T16:26:04.888Z,55.20
2022-09-23T16:28:33.093Z,55.19
2022-09-23T16:31:01.230Z,55.60
2022-09-23T16:33:29.302Z,56.64
2022-09-23T16:36:00.814Z,56.95
2022-09-23T16:38:29.662Z,57.19
2022-09-23T16:41:00.236Z,57.52
2022-09-23T16:43:31.758Z,58.34
2022-09-23T16:45:59.946Z,59.19
2022-09-23T16:48:28.135Z,59.51
2022-09-23T16:50:56.251Z,60.03
2022-09-23T16:53:26.515Z,60.05
2022-09-23T16:55:57.841Z,60.24
2022-09-23T16:58:26.125Z,60.49
2022-09-23T17:01:16.961Z,60.25
2022-09-23T17:03:45.266Z,61.10
2022-09-23T17:06:15.285Z,61.65
2022-09-23T17:08:48.131Z,61.58
2022-09-23T17:11:17.041Z,61.51
2022-09-23T17:13:45.645Z,61.53
2022-09-23T17:16:35.004Z,62.00
2022-09-23T17:19:08.756Z,62.14
2022-09-23T17:21:37.461Z,62.55
2022-09-23T17:24:06.448Z,63.25
2022-09-23T17:26:35.065Z,63.13
2022-09-23T17:29:03.595Z,63.40
2022-09-23T17:31:31.891Z,63.72
2022-09-23T17:34:00.807Z,64.61
2022-09-23T17:36:30.205Z,65.25
2022-09-23T17:38:58.319Z,65.58
2022-09-23T17:41:28.230Z,65.00
2022-09-23T17:43:58.482Z,64.66
2022-09-23T17:46:30.194Z,64.87
2022-09-23T17:48:58.431Z,65.36
2022-09-23T17:51:26.640Z,64.92
2022-09-23T17:53:55.903Z,64.34
2022-09-23T17:56:26.859Z,64.52
2022-09-23T17:58:55.218Z,64.74
2022-09-23T18:01:26.256Z,65.54
2022-09-23T18:04:00.427Z,66.12
2022-09-23T18:06:31.835Z,66.96
2022-09-23T18:09:04.405Z,66.54
2022-09-23T18:11:36.460Z,66.30
2022-09-23T18:14:17.053Z,66.21
2022-09-23T18:16:51.941Z,66.24
2022-09-23T18:19:22.735Z,66.04
2022-09-23T18:21:56.074Z,66.07
2022-09-23T18:24:32.442Z,66.78
2022-09-23T18:27:02.011Z,65.88
2022-09-23T18:29:30.142Z,66.14
2022-09-23T18:31:59.475Z,67.06
2022-09-23T18:34:29.192Z,67.54
2022-09-23T18:36:57.447Z,67.79
2022-09-23T18:39:25.903Z,67.79
2022-09-23T18:41:54.933Z,67.72
2022-09-23T18:44:23.511Z,67.90
2022-09-23T18:46:51.645Z,68.12
2022-09-23T18:49:38.352Z,68.49
2022-09-23T18:52:06.524Z,68.93
2022-09-23T18:54:34.624Z,68.50
2022-09-23T18:57:02.799Z,68.81
2022-09-23T18:59:33.472Z,69.49
2022-09-23T19:02:01.875Z,70.52
2022-09-23T19:04:30.253Z,71.76
2022-09-23T19:06:58.896Z,70.83
2022-09-23T19:09:27.045Z,69.99
2022-09-23T19:11:56.467Z,69.18
2022-09-23T19:14:24.679Z,68.73
2022-09-23T19:16:52.808Z,69.20
2022-09-23T19:19:21.118Z,70.05
2022-09-23T19:21:49.181Z,70.01
2022-09-23T19:24:20.037Z,69.93
2022-09-23T19:26:48.825Z,70.61
2022-09-23T19:29:22.025Z,70.40
2022-09-23T19:31:51.234Z,71.13
2022-09-23T19:34:25.090Z,71.34
2022-09-23T19:36:57.433Z,70.24
2022-09-23T19:39:28.510Z,69.61
2022-09-23T19:41:56.693Z,68.97
2022-09-23T19:44:28.206Z,69.69
2022-09-23T19:46:57.432Z,70.20
2022-09-23T19:49:25.996Z,71.01
2022-09-23T19:51:55.953Z,71.55
2022-09-23T19:54:27.348Z,71.87
2022-09-23T19:56:55.860Z,72.79
2022-09-23T19:59:26.459Z,73.16
2022-09-23T20:01:55.071Z,72.26
2022-09-23T20:04:23.769Z,72.71
2022-09-23T20:06:52.145Z,70.78
2022-09-23T20:09:20.752Z,70.61
2022-09-23T20:11:49.635Z,69.91
2022-09-23T20:14:19.475Z,70.33
2022-09-23T20:16:47.581Z,70.46
2022-09-23T20:19:16.103Z,70.73
2022-09-23T20:21:44.228Z,71.06
2022-09-23T20:24:13.100Z,71.93
2022-09-23T20:26:59.939Z,71.95
2022-09-23T20:29:28.084Z,71.78
2022-09-23T20:31:58.606Z,71.98
2022-09-23T20:34:29.762Z,72.28
2022-09-23T20:36:59.265Z,72.41
2022-09-23T20:39:28.288Z,72.51
2022-09-23T20:41:56.492Z,72.57
2022-09-23T20:44:25.096Z,73.35
2022-09-23T20:46:53.199Z,73.25
2022-09-23T20:49:21.327Z,73.16
2022-09-23T20:51:50.350Z,73.17
2022-09-23T20:54:21.609Z,73.50
2022-09-23T20:56:49.696Z,73.76
2022-09-23T20:59:19.098Z,73.82
2022-09-23T21:01:47.826Z,73.56
2022-09-23T21:04:16.537Z,73.64
2022-09-23T21:06:44.682Z,73.13
2022-09-23T21:09:12.748Z,73.91
2022-09-23T21:11:41.059Z,73.92
2022-09-23T21:14:09.497Z,73.69
2022-09-23T21:16:37.642Z,73.74
2022-09-23T21:19:08.079Z,73.73
2022-09-23T21:21:36.394Z,73.86
2022-09-23T21:24:33.631Z,74.15
2022-09-23T21:26:52.945Z,74.12
2022-09-23T21:29:21.251Z,73.65
2022-09-23T21:31:49.662Z,74.10
2022-09-23T21:34:19.340Z,73.95
2022-09-23T21:36:48.115Z,74.18
2022-09-23T21:39:16.371Z,73.99
2022-09-23T21:41:44.365Z,74.04
2022-09-23T21:44:12.567Z,75.01
2022-09-23T21:46:40.650Z,74.43
2022-09-23T21:49:09.107Z,74.17
2022-09-23T21:51:41.147Z,74.22
2022-09-23T21:54:16.857Z,74.10
2022-09-23T21:56:45.343Z,74.38
2022-09-23T21:59:13.374Z,74.34
2022-09-23T22:01:48.361Z,74.10
2022-09-23T22:04:20.789Z,74.23
2022-09-23T22:06:49.116Z,74.97
2022-09-23T22:09:20.556Z,75.14
2022-09-23T22:12:12.724Z,75.20
2022-09-23T22:14:41.053Z,75.39
2022-09-23T22:17:12.262Z,74.98
2022-09-23T22:19:45.954Z,74.93
2022-09-23T22:22:18.029Z,75.40
2022-09-23T22:24:48.107Z,74.81
2022-09-23T22:27:19.215Z,73.86
2022-09-23T22:30:06.937Z,74.37
2022-09-23T22:32:41.287Z,74.94
2022-09-23T22:35:19.302Z,74.15
2022-09-23T22:37:48.708Z,74.48
2022-09-23T22:40:17.065Z,74.52
2022-09-23T22:42:45.748Z,75.10
2022-09-23T22:45:13.970Z,74.87
2022-09-23T22:47:45.352Z,74.37
2022-09-23T22:50:15.481Z,74.38
2022-09-23T22:52:44.803Z,74.99
2022-09-23T22:55:13.166Z,75.44
2022-09-23T22:57:41.356Z,76.28
2022-09-23T23:00:12.600Z,76.06
2022-09-23T23:02:41.881Z,74.71
2022-09-23T23:05:10.471Z,74.87
2022-09-23T23:07:38.614Z,75.43
2022-09-23T23:10:10.080Z,74.70
2022-09-23T23:12:40.119Z,74.39
2022-09-23T23:15:12.473Z,74.19
2022-09-23T23:17:43.245Z,74.64
2022-09-23T23:20:11.383Z,74.51
2022-09-23T23:22:39.524Z,74.81
2022-09-23T23:25:09.798Z,75.14
2022-09-23T23:27:38.027Z,75.57
2022-09-23T23:30:08.323Z,76.08
2022-09-23T23:32:36.394Z,75.50
2022-09-23T23:35:05.619Z,75.17
2022-09-23T23:37:34.106Z,75.31
2022-09-23T23:40:03.972Z,75.79
2022-09-23T23:42:32.877Z,75.38
2022-09-23T23:45:01.375Z,75.62
2022-09-23T23:47:29.477Z,75.52
2022-09-23T23:49:57.663Z,76.01
2022-09-23T23:52:25.815Z,75.83
2022-09-23T23:54:54.052Z,75.74
2022-09-23T23:57:22.072Z,75.22
2022-09-23T23:59:50.141Z,75.51
